sensor_id;sensor_type;location;lat;lon;timestamp;P1;durP1;ratioP1;P2;durP2;ratioP2
11829;SDS011;5972;42.134;24.718;2022-08-20T00:00:25;9.75;;;6.40;;
11829;SDS011;5972;42.134;24.718;2022-08-20T00:02:54;6.93;;;6.22;;
11829;SDS011;5972;42.134;24.718;2022-08-20T00:05:24;7.43;;;6.68;;
11829;SDS011;5972;42.134;24.718;2022-08-20T00:07:58;7.78;;;6.20;;
11829;SDS011;5972;42.134;24.718;2022-08-20T00:10:26;10.85;;;6.43;;
11829;SDS011;5972;42.134;24.718;2022-08-20T00:12:54;8.25;;;6.75;;
11829;SDS011;5972;42.134;24.718;2022-08-20T00:15:25;10.60;;;6.50;;
11829;SDS011;5972;42.134;24.718;2022-08-20T00:17:54;10.32;;;6.22;;
11829;SDS011;5972;42.134;24.718;2022-08-20T00:20:23;10.02;;;6.50;;
11829;SDS011;5972;42.134;24.718;2022-08-20T00:22:52;8.55;;;6.40;;
11829;SDS011;5972;42.134;24.718;2022-08-20T00:25:19;7.55;;;6.53;;
11829;SDS011;5972;42.134;24.718;2022-08-20T00:27:46;8.57;;;6.05;;
11829;SDS011;5972;42.134;24.718;2022-08-20T00:30:13;8.90;;;6.40;;
11829;SDS011;5972;42.134;24.718;2022-08-20T00:32:43;7.82;;;6.40;;
11829;SDS011;5972;42.134;24.718;2022-08-20T00:35:13;6.55;;;5.95;;
11829;SDS011;5972;42.134;24.718;2022-08-20T00:37:40;7.85;;;6.18;;
11829;SDS011;5972;42.134;24.718;2022-08-20T00:40:09;7.00;;;6.20;;
11829;SDS011;5972;42.134;24.718;2022-08-20T00:42:39;9.82;;;6.20;;
11829;SDS011;5972;42.134;24.718;2022-08-20T00:45:07;6.50;;;5.72;;
11829;SDS011;5972;42.134;24.718;2022-08-20T00:47:34;7.82;;;6.00;;
11829;SDS011;5972;42.134;24.718;2022-08-20T00:50:06;10.35;;;6.22;;
11829;SDS011;5972;42.134;24.718;2022-08-20T00:52:34;8.20;;;6.30;;
11829;SDS011;5972;42.134;24.718;2022-08-20T00:55:03;10.82;;;6.40;;
11829;SDS011;5972;42.134;24.718;2022-08-20T00:57:32;8.80;;;6.07;;
11829;SDS011;5972;42.134;24.718;2022-08-20T01:00:03;6.60;;;6.00;;
11829;SDS011;5972;42.134;24.718;2022-08-20T01:02:33;7.07;;;6.38;;
11829;SDS011;5972;42.134;24.718;2022-08-20T01:05:00;6.93;;;5.97;;
11829;SDS011;5972;42.134;24.718;2022-08-20T01:07:28;8.05;;;6.22;;
11829;SDS011;5972;42.134;24.718;2022-08-20T01:09:57;11.48;;;6.22;;
11829;SDS011;5972;42.134;24.718;2022-08-20T01:12:26;7.30;;;6.20;;
11829;SDS011;5972;42.134;24.718;2022-08-20T01:14:54;6.88;;;6.28;;
11829;SDS011;5972;42.134;24.718;2022-08-20T01:17:24;8.05;;;6.00;;
11829;SDS011;5972;42.134;24.718;2022-08-20T01:19:54;7.85;;;6.03;;
11829;SDS011;5972;42.134;24.718;2022-08-20T01:22:33;6.97;;;5.88;;
11829;SDS011;5972;42.134;24.718;2022-08-20T01:25:26;9.10;;;6.50;;
11829;SDS011;5972;42.134;24.718;2022-08-20T01:27:59;7.30;;;6.60;;
11829;SDS011;5972;42.134;24.718;2022-08-20T01:30:28;6.15;;;5.65;;
11829;SDS011;5972;42.134;24.718;2022-08-20T01:32:57;8.77;;;6.53;;
11829;SDS011;5972;42.134;24.718;2022-08-20T01:35:24;7.13;;;6.43;;
11829;SDS011;5972;42.134;24.718;2022-08-20T01:37:51;9.70;;;6.63;;
11829;SDS011;5972;42.134;24.718;2022-08-20T01:40:20;9.65;;;6.90;;
11829;SDS011;5972;42.134;24.718;2022-08-20T01:42:54;7.60;;;6.85;;
11829;SDS011;5972;42.134;24.718;2022-08-20T01:45:23;9.73;;;7.15;;
11829;SDS011;5972;42.134;24.718;2022-08-20T01:47:51;8.02;;;7.22;;
11829;SDS011;5972;42.134;24.718;2022-08-20T01:50:20;13.02;;;6.90;;
11829;SDS011;5972;42.134;24.718;2022-08-20T01:52:54;11.27;;;7.60;;
11829;SDS011;5972;42.134;24.718;2022-08-20T01:55:28;9.00;;;7.43;;
11829;SDS011;5972;42.134;24.718;2022-08-20T01:57:55;9.98;;;7.50;;
11829;SDS011;5972;42.134;24.718;2022-08-20T02:00:25;10.85;;;7.40;;
11829;SDS011;5972;42.134;24.718;2022-08-20T02:02:53;9.68;;;7.45;;
11829;SDS011;5972;42.134;24.718;2022-08-20T02:05:20;9.57;;;7.30;;
11829;SDS011;5972;42.134;24.718;2022-08-20T02:07:47;7.80;;;6.90;;
11829;SDS011;5972;42.134;24.718;2022-08-20T02:10:14;8.15;;;7.20;;
11829;SDS011;5972;42.134;24.718;2022-08-20T02:12:43;10.25;;;7.15;;
11829;SDS011;5972;42.134;24.718;2022-08-20T02:15:10;8.73;;;7.00;;
11829;SDS011;5972;42.134;24.718;2022-08-20T02:17:39;10.27;;;7.25;;
11829;SDS011;5972;42.134;24.718;2022-08-20T02:20:08;12.20;;;7.95;;
11829;SDS011;5972;42.134;24.718;2022-08-20T02:22:39;8.45;;;7.50;;
11829;SDS011;5972;42.134;24.718;2022-08-20T02:25:12;7.65;;;6.88;;
11829;SDS011;5972;42.134;24.718;2022-08-20T02:27:42;8.88;;;7.25;;
11829;SDS011;5972;42.134;24.718;2022-08-20T02:30:12;17.80;;;7.78;;
11829;SDS011;5972;42.134;24.718;2022-08-20T02:32:44;8.75;;;7.63;;
11829;SDS011;5972;42.134;24.718;2022-08-20T02:35:11;11.13;;;7.47;;
11829;SDS011;5972;42.134;24.718;2022-08-20T02:37:40;8.70;;;7.57;;
11829;SDS011;5972;42.134;24.718;2022-08-20T02:40:11;9.07;;;7.30;;
11829;SDS011;5972;42.134;24.718;2022-08-20T02:42:40;8.02;;;7.20;;
11829;SDS011;5972;42.134;24.718;2022-08-20T02:45:08;18.60;;;8.05;;
11829;SDS011;5972;42.134;24.718;2022-08-20T02:47:37;11.38;;;7.15;;
11829;SDS011;5972;42.134;24.718;2022-08-20T02:50:05;10.20;;;7.63;;
11829;SDS011;5972;42.134;24.718;2022-08-20T02:52:36;10.85;;;7.80;;
11829;SDS011;5972;42.134;24.718;2022-08-20T02:55:03;12.65;;;8.15;;
11829;SDS011;5972;42.134;24.718;2022-08-20T02:57:30;11.30;;;7.88;;
11829;SDS011;5972;42.134;24.718;2022-08-20T02:59:57;11.45;;;7.75;;
11829;SDS011;5972;42.134;24.718;2022-08-20T03:02:24;8.80;;;7.10;;
11829;SDS011;5972;42.134;24.718;2022-08-20T03:04:51;9.60;;;8.10;;
11829;SDS011;5972;42.134;24.718;2022-08-20T03:07:19;9.07;;;8.18;;
11829;SDS011;5972;42.134;24.718;2022-08-20T03:09:46;13.52;;;7.80;;
11829;SDS011;5972;42.134;24.718;2022-08-20T03:12:13;9.05;;;8.15;;
11829;SDS011;5972;42.134;24.718;2022-08-20T03:14:40;10.70;;;7.85;;
11829;SDS011;5972;42.134;24.718;2022-08-20T03:17:07;11.38;;;7.90;;
11829;SDS011;5972;42.134;24.718;2022-08-20T03:19:34;12.07;;;7.97;;
11829;SDS011;5972;42.134;24.718;2022-08-20T03:22:00;8.70;;;7.75;;
11829;SDS011;5972;42.134;24.718;2022-08-20T03:24:29;10.27;;;8.27;;
11829;SDS011;5972;42.134;24.718;2022-08-20T03:26:56;10.35;;;7.80;;
11829;SDS011;5972;42.134;24.718;2022-08-20T03:29:23;13.55;;;8.05;;
11829;SDS011;5972;42.134;24.718;2022-08-20T03:31:49;13.35;;;7.82;;
11829;SDS011;5972;42.134;24.718;2022-08-20T03:34:16;9.00;;;7.95;;
11829;SDS011;5972;42.134;24.718;2022-08-20T03:36:43;10.10;;;7.88;;
11829;SDS011;5972;42.134;24.718;2022-08-20T03:39:10;10.05;;;8.43;;
11829;SDS011;5972;42.134;24.718;2022-08-20T03:41:38;8.88;;;7.75;;
11829;SDS011;5972;42.134;24.718;2022-08-20T03:44:05;11.75;;;7.68;;
11829;SDS011;5972;42.134;24.718;2022-08-20T03:46:32;10.63;;;8.07;;
11829;SDS011;5972;42.134;24.718;2022-08-20T03:48:59;8.65;;;7.22;;
11829;SDS011;5972;42.134;24.718;2022-08-20T03:51:26;11.13;;;8.00;;
11829;SDS011;5972;42.134;24.718;2022-08-20T03:53:53;8.90;;;7.95;;
11829;SDS011;5972;42.134;24.718;2022-08-20T03:56:20;10.70;;;7.70;;
11829;SDS011;5972;42.134;24.718;2022-08-20T03:58:48;10.55;;;7.68;;
11829;SDS011;5972;42.134;24.718;2022-08-20T04:01:15;12.15;;;8.25;;
11829;SDS011;5972;42.134;24.718;2022-08-20T04:03:42;13.57;;;8.10;;
11829;SDS011;5972;42.134;24.718;2022-08-20T04:06:10;11.82;;;8.05;;
11829;SDS011;5972;42.134;24.718;2022-08-20T04:08:36;9.57;;;8.18;;
11829;SDS011;5972;42.134;24.718;2022-08-20T04:11:06;9.73;;;7.95;;
11829;SDS011;5972;42.134;24.718;2022-08-20T04:13:33;11.52;;;7.70;;
11829;SDS011;5972;42.134;24.718;2022-08-20T04:16:01;11.35;;;7.75;;
11829;SDS011;5972;42.134;24.718;2022-08-20T04:18:33;13.13;;;8.88;;
11829;SDS011;5972;42.134;24.718;2022-08-20T04:21:01;13.88;;;7.93;;
11829;SDS011;5972;42.134;24.718;2022-08-20T04:23:28;11.25;;;8.25;;
11829;SDS011;5972;42.134;24.718;2022-08-20T04:25:55;12.43;;;8.63;;
11829;SDS011;5972;42.134;24.718;2022-08-20T04:28:23;11.20;;;8.65;;
11829;SDS011;5972;42.134;24.718;2022-08-20T04:30:52;10.38;;;7.80;;
11829;SDS011;5972;42.134;24.718;2022-08-20T04:33:21;8.60;;;7.68;;
11829;SDS011;5972;42.134;24.718;2022-08-20T04:35:50;11.75;;;7.40;;
11829;SDS011;5972;42.134;24.718;2022-08-20T04:38:18;13.77;;;8.32;;
11829;SDS011;5972;42.134;24.718;2022-08-20T04:40:46;9.65;;;8.00;;
11829;SDS011;5972;42.134;24.718;2022-08-20T04:43:22;10.75;;;8.02;;
11829;SDS011;5972;42.134;24.718;2022-08-20T04:45:51;12.55;;;8.60;;
11829;SDS011;5972;42.134;24.718;2022-08-20T04:48:20;12.07;;;8.70;;
11829;SDS011;5972;42.134;24.718;2022-08-20T04:50:49;12.98;;;9.02;;
11829;SDS011;5972;42.134;24.718;2022-08-20T04:53:18;13.82;;;9.20;;
11829;SDS011;5972;42.134;24.718;2022-08-20T04:55:47;21.00;;;9.18;;
11829;SDS011;5972;42.134;24.718;2022-08-20T04:58:17;13.18;;;9.88;;
11829;SDS011;5972;42.134;24.718;2022-08-20T05:00:46;16.20;;;9.40;;
11829;SDS011;5972;42.134;24.718;2022-08-20T05:03:13;14.57;;;8.90;;
11829;SDS011;5972;42.134;24.718;2022-08-20T05:05:42;13.13;;;9.55;;
11829;SDS011;5972;42.134;24.718;2022-08-20T05:08:10;17.27;;;10.10;;
11829;SDS011;5972;42.134;24.718;2022-08-20T05:10:38;23.75;;;9.52;;
11829;SDS011;5972;42.134;24.718;2022-08-20T05:13:06;20.35;;;9.40;;
11829;SDS011;5972;42.134;24.718;2022-08-20T05:15:34;17.88;;;9.38;;
11829;SDS011;5972;42.134;24.718;2022-08-20T05:18:02;24.77;;;9.38;;
11829;SDS011;5972;42.134;24.718;2022-08-20T05:20:32;21.48;;;9.52;;
11829;SDS011;5972;42.134;24.718;2022-08-20T05:23:06;26.92;;;10.30;;
11829;SDS011;5972;42.134;24.718;2022-08-20T05:25:35;18.40;;;9.68;;
11829;SDS011;5972;42.134;24.718;2022-08-20T05:28:03;30.73;;;9.60;;
11829;SDS011;5972;42.134;24.718;2022-08-20T05:30:33;29.00;;;10.40;;
11829;SDS011;5972;42.134;24.718;2022-08-20T05:33:01;22.95;;;9.30;;
11829;SDS011;5972;42.134;24.718;2022-08-20T05:35:31;18.58;;;9.30;;
11829;SDS011;5972;42.134;24.718;2022-08-20T05:38:02;20.20;;;9.43;;
11829;SDS011;5972;42.134;24.718;2022-08-20T05:40:31;17.20;;;8.80;;
11829;SDS011;5972;42.134;24.718;2022-08-20T05:42:58;19.13;;;9.20;;
11829;SDS011;5972;42.134;24.718;2022-08-20T05:45:25;20.42;;;9.38;;
11829;SDS011;5972;42.134;24.718;2022-08-20T05:47:52;19.00;;;9.57;;
11829;SDS011;5972;42.134;24.718;2022-08-20T05:50:19;20.67;;;9.80;;
11829;SDS011;5972;42.134;24.718;2022-08-20T05:52:46;17.92;;;9.00;;
11829;SDS011;5972;42.134;24.718;2022-08-20T05:55:13;20.50;;;9.00;;
11829;SDS011;5972;42.134;24.718;2022-08-20T05:57:41;17.17;;;9.70;;
11829;SDS011;5972;42.134;24.718;2022-08-20T06:00:11;15.00;;;9.80;;
11829;SDS011;5972;42.134;24.718;2022-08-20T06:02:39;14.57;;;9.02;;
11829;SDS011;5972;42.134;24.718;2022-08-20T06:05:24;16.05;;;9.00;;
11829;SDS011;5972;42.134;24.718;2022-08-20T06:07:51;12.88;;;9.02;;
11829;SDS011;5972;42.134;24.718;2022-08-20T06:10:19;17.98;;;9.18;;
11829;SDS011;5972;42.134;24.718;2022-08-20T06:12:47;12.05;;;8.88;;
11829;SDS011;5972;42.134;24.718;2022-08-20T06:15:15;15.40;;;9.05;;
11829;SDS011;5972;42.134;24.718;2022-08-20T06:17:42;12.13;;;9.50;;
11829;SDS011;5972;42.134;24.718;2022-08-20T06:20:10;16.38;;;9.48;;
11829;SDS011;5972;42.134;24.718;2022-08-20T06:22:37;16.13;;;9.48;;
11829;SDS011;5972;42.134;24.718;2022-08-20T06:25:04;13.43;;;8.45;;
11829;SDS011;5972;42.134;24.718;2022-08-20T06:27:32;9.77;;;8.57;;
11829;SDS011;5972;42.134;24.718;2022-08-20T06:30:03;12.73;;;8.65;;
11829;SDS011;5972;42.134;24.718;2022-08-20T06:32:34;15.65;;;8.77;;
11829;SDS011;5972;42.134;24.718;2022-08-20T06:35:01;10.77;;;8.70;;
11829;SDS011;5972;42.134;24.718;2022-08-20T06:37:28;9.82;;;8.80;;
11829;SDS011;5972;42.134;24.718;2022-08-20T06:39:58;10.90;;;8.52;;
11829;SDS011;5972;42.134;24.718;2022-08-20T06:42:26;8.70;;;7.90;;
11829;SDS011;5972;42.134;24.718;2022-08-20T06:44:53;9.25;;;8.15;;
11829;SDS011;5972;42.134;24.718;2022-08-20T06:47:22;11.13;;;8.43;;
11829;SDS011;5972;42.134;24.718;2022-08-20T06:49:48;10.85;;;8.10;;
11829;SDS011;5972;42.134;24.718;2022-08-20T06:52:15;11.95;;;8.63;;
11829;SDS011;5972;42.134;24.718;2022-08-20T06:54:42;9.82;;;8.40;;
11829;SDS011;5972;42.134;24.718;2022-08-20T06:57:09;13.27;;;9.02;;
11829;SDS011;5972;42.134;24.718;2022-08-20T06:59:36;12.05;;;9.30;;
11829;SDS011;5972;42.134;24.718;2022-08-20T07:02:03;13.65;;;8.80;;
11829;SDS011;5972;42.134;24.718;2022-08-20T07:04:32;12.05;;;8.95;;
11829;SDS011;5972;42.134;24.718;2022-08-20T07:06:59;10.85;;;8.52;;
11829;SDS011;5972;42.134;24.718;2022-08-20T07:09:26;14.38;;;8.90;;
11829;SDS011;5972;42.134;24.718;2022-08-20T07:11:53;11.73;;;9.38;;
11829;SDS011;5972;42.134;24.718;2022-08-20T07:14:20;16.15;;;9.10;;
11829;SDS011;5972;42.134;24.718;2022-08-20T07:16:47;13.52;;;9.40;;
11829;SDS011;5972;42.134;24.718;2022-08-20T07:19:14;11.93;;;9.30;;
11829;SDS011;5972;42.134;24.718;2022-08-20T07:21:43;9.77;;;8.77;;
11829;SDS011;5972;42.134;24.718;2022-08-20T07:24:11;10.40;;;9.27;;
11829;SDS011;5972;42.134;24.718;2022-08-20T07:26:38;13.02;;;8.55;;
11829;SDS011;5972;42.134;24.718;2022-08-20T07:29:05;9.98;;;8.45;;
11829;SDS011;5972;42.134;24.718;2022-08-20T07:31:32;15.02;;;8.98;;
11829;SDS011;5972;42.134;24.718;2022-08-20T07:34:16;12.40;;;9.07;;
11829;SDS011;5972;42.134;24.718;2022-08-20T07:36:44;11.10;;;8.48;;
11829;SDS011;5972;42.134;24.718;2022-08-20T07:39:12;10.73;;;8.73;;
11829;SDS011;5972;42.134;24.718;2022-08-20T07:41:39;15.98;;;9.52;;
11829;SDS011;5972;42.134;24.718;2022-08-20T07:44:06;12.95;;;8.82;;
11829;SDS011;5972;42.134;24.718;2022-08-20T07:46:33;13.43;;;8.30;;
11829;SDS011;5972;42.134;24.718;2022-08-20T07:49:00;13.77;;;9.10;;
11829;SDS011;5972;42.134;24.718;2022-08-20T07:51:29;12.77;;;9.10;;
11829;SDS011;5972;42.134;24.718;2022-08-20T07:53:57;15.57;;;9.25;;
11829;SDS011;5972;42.134;24.718;2022-08-20T07:56:24;18.70;;;8.95;;
11829;SDS011;5972;42.134;24.718;2022-08-20T07:58:52;10.00;;;8.85;;
11829;SDS011;5972;42.134;24.718;2022-08-20T08:01:20;14.55;;;9.45;;
11829;SDS011;5972;42.134;24.718;2022-08-20T08:03:49;10.07;;;9.05;;
11829;SDS011;5972;42.134;24.718;2022-08-20T08:06:17;12.95;;;8.90;;
11829;SDS011;5972;42.134;24.718;2022-08-20T08:08:45;11.98;;;9.30;;
11829;SDS011;5972;42.134;24.718;2022-08-20T08:11:14;12.57;;;9.32;;
11829;SDS011;5972;42.134;24.718;2022-08-20T08:13:43;11.43;;;9.43;;
11829;SDS011;5972;42.134;24.718;2022-08-20T08:16:12;11.55;;;9.35;;
11829;SDS011;5972;42.134;24.718;2022-08-20T08:18:40;16.92;;;9.50;;
11829;SDS011;5972;42.134;24.718;2022-08-20T08:21:12;11.90;;;9.15;;
11829;SDS011;5972;42.134;24.718;2022-08-20T08:23:40;12.23;;;9.10;;
11829;SDS011;5972;42.134;24.718;2022-08-20T08:26:09;12.52;;;9.35;;
11829;SDS011;5972;42.134;24.718;2022-08-20T08:28:37;13.57;;;9.00;;
11829;SDS011;5972;42.134;24.718;2022-08-20T08:31:05;12.80;;;8.93;;
11829;SDS011;5972;42.134;24.718;2022-08-20T08:33:32;9.75;;;8.85;;
11829;SDS011;5972;42.134;24.718;2022-08-20T08:36:00;13.57;;;8.77;;
11829;SDS011;5972;42.134;24.718;2022-08-20T08:38:28;14.23;;;9.00;;
11829;SDS011;5972;42.134;24.718;2022-08-20T08:40:57;15.55;;;8.52;;
11829;SDS011;5972;42.134;24.718;2022-08-20T08:43:32;14.93;;;7.95;;
11829;SDS011;5972;42.134;24.718;2022-08-20T08:46:02;10.55;;;8.05;;
11829;SDS011;5972;42.134;24.718;2022-08-20T08:48:33;16.23;;;8.48;;
11829;SDS011;5972;42.134;24.718;2022-08-20T08:51:03;11.35;;;8.15;;
11829;SDS011;5972;42.134;24.718;2022-08-20T08:53:36;11.05;;;7.88;;
11829;SDS011;5972;42.134;24.718;2022-08-20T08:56:06;8.77;;;8.02;;
11829;SDS011;5972;42.134;24.718;2022-08-20T08:58:35;9.82;;;8.73;;
11829;SDS011;5972;42.134;24.718;2022-08-20T09:01:04;9.40;;;7.85;;
11829;SDS011;5972;42.134;24.718;2022-08-20T09:03:36;9.15;;;7.25;;
11829;SDS011;5972;42.134;24.718;2022-08-20T09:06:07;12.85;;;7.70;;
11829;SDS011;5972;42.134;24.718;2022-08-20T09:08:40;10.10;;;8.10;;
11829;SDS011;5972;42.134;24.718;2022-08-20T09:11:11;14.02;;;7.75;;
11829;SDS011;5972;42.134;24.718;2022-08-20T09:13:39;11.32;;;7.78;;
11829;SDS011;5972;42.134;24.718;2022-08-20T09:16:08;10.30;;;7.40;;
11829;SDS011;5972;42.134;24.718;2022-08-20T09:18:35;14.13;;;7.82;;
11829;SDS011;5972;42.134;24.718;2022-08-20T09:21:02;9.95;;;7.82;;
11829;SDS011;5972;42.134;24.718;2022-08-20T09:23:29;12.93;;;7.60;;
11829;SDS011;5972;42.134;24.718;2022-08-20T09:25:56;12.38;;;7.80;;
11829;SDS011;5972;42.134;24.718;2022-08-20T09:28:23;35.80;;;21.88;;
11829;SDS011;5972;42.134;24.718;2022-08-20T09:30:50;12.10;;;7.93;;
11829;SDS011;5972;42.134;24.718;2022-08-20T09:33:18;14.15;;;7.90;;
11829;SDS011;5972;42.134;24.718;2022-08-20T09:35:45;18.13;;;7.85;;
11829;SDS011;5972;42.134;24.718;2022-08-20T09:38:12;10.13;;;7.70;;
11829;SDS011;5972;42.134;24.718;2022-08-20T09:40:39;12.57;;;7.70;;
11829;SDS011;5972;42.134;24.718;2022-08-20T09:43:06;7.75;;;6.95;;
11829;SDS011;5972;42.134;24.718;2022-08-20T09:45:33;7.68;;;6.60;;
11829;SDS011;5972;42.134;24.718;2022-08-20T09:48:00;8.38;;;7.13;;
11829;SDS011;5972;42.134;24.718;2022-08-20T09:50:30;9.75;;;6.97;;
11829;SDS011;5972;42.134;24.718;2022-08-20T09:52:59;10.98;;;7.07;;
11829;SDS011;5972;42.134;24.718;2022-08-20T09:55:30;19.02;;;7.80;;
11829;SDS011;5972;42.134;24.718;2022-08-20T09:57:59;10.02;;;6.95;;
11829;SDS011;5972;42.134;24.718;2022-08-20T10:00:27;11.00;;;7.30;;
11829;SDS011;5972;42.134;24.718;2022-08-20T10:02:54;10.70;;;6.68;;
11829;SDS011;5972;42.134;24.718;2022-08-20T10:05:21;7.75;;;7.05;;
11829;SDS011;5972;42.134;24.718;2022-08-20T10:07:49;7.82;;;7.00;;
11829;SDS011;5972;42.134;24.718;2022-08-20T10:10:16;9.85;;;7.03;;
11829;SDS011;5972;42.134;24.718;2022-08-20T10:12:43;10.77;;;6.75;;
11829;SDS011;5972;42.134;24.718;2022-08-20T10:15:11;9.80;;;6.88;;
11829;SDS011;5972;42.134;24.718;2022-08-20T10:17:38;13.60;;;7.68;;
11829;SDS011;5972;42.134;24.718;2022-08-20T10:20:06;11.90;;;7.47;;
11829;SDS011;5972;42.134;24.718;2022-08-20T10:22:35;13.35;;;7.70;;
11829;SDS011;5972;42.134;24.718;2022-08-20T10:25:04;8.20;;;6.93;;
11829;SDS011;5972;42.134;24.718;2022-08-20T10:27:32;14.93;;;7.47;;
11829;SDS011;5972;42.134;24.718;2022-08-20T10:29:59;10.65;;;7.20;;
11829;SDS011;5972;42.134;24.718;2022-08-20T10:32:26;9.50;;;7.15;;
11829;SDS011;5972;42.134;24.718;2022-08-20T10:34:53;10.00;;;7.25;;
11829;SDS011;5972;42.134;24.718;2022-08-20T10:37:20;11.38;;;7.63;;
11829;SDS011;5972;42.134;24.718;2022-08-20T10:39:51;7.82;;;6.85;;
11829;SDS011;5972;42.134;24.718;2022-08-20T10:42:22;8.85;;;6.85;;
11829;SDS011;5972;42.134;24.718;2022-08-20T10:44:49;11.90;;;7.43;;
11829;SDS011;5972;42.134;24.718;2022-08-20T10:47:17;12.07;;;7.07;;
11829;SDS011;5972;42.134;24.718;2022-08-20T10:49:46;9.90;;;6.75;;
11829;SDS011;5972;42.134;24.718;2022-08-20T10:52:14;8.13;;;7.18;;
11829;SDS011;5972;42.134;24.718;2022-08-20T10:54:42;12.32;;;7.00;;
11829;SDS011;5972;42.134;24.718;2022-08-20T10:57:11;9.60;;;6.93;;
11829;SDS011;5972;42.134;24.718;2022-08-20T10:59:41;7.10;;;6.43;;
11829;SDS011;5972;42.134;24.718;2022-08-20T11:02:09;12.48;;;6.60;;
11829;SDS011;5972;42.134;24.718;2022-08-20T11:04:36;9.52;;;6.40;;
11829;SDS011;5972;42.134;24.718;2022-08-20T11:07:15;10.07;;;6.38;;
11829;SDS011;5972;42.134;24.718;2022-08-20T11:09:44;9.55;;;5.82;;
11829;SDS011;5972;42.134;24.718;2022-08-20T11:12:14;7.75;;;5.97;;
11829;SDS011;5972;42.134;24.718;2022-08-20T11:14:43;6.18;;;5.50;;
11829;SDS011;5972;42.134;24.718;2022-08-20T11:17:11;11.10;;;5.80;;
11829;SDS011;5972;42.134;24.718;2022-08-20T11:19:38;8.80;;;5.93;;
11829;SDS011;5972;42.134;24.718;2022-08-20T11:22:07;7.10;;;5.55;;
11829;SDS011;5972;42.134;24.718;2022-08-20T11:24:34;9.55;;;5.97;;
11829;SDS011;5972;42.134;24.718;2022-08-20T11:27:01;6.05;;;5.50;;
11829;SDS011;5972;42.134;24.718;2022-08-20T11:29:28;11.73;;;6.00;;
11829;SDS011;5972;42.134;24.718;2022-08-20T11:31:56;10.95;;;5.70;;
11829;SDS011;5972;42.134;24.718;2022-08-20T11:34:23;10.00;;;6.15;;
11829;SDS011;5972;42.134;24.718;2022-08-20T11:36:50;7.68;;;5.65;;
11829;SDS011;5972;42.134;24.718;2022-08-20T11:39:18;10.30;;;5.80;;
11829;SDS011;5972;42.134;24.718;2022-08-20T11:41:44;6.68;;;5.55;;
11829;SDS011;5972;42.134;24.718;2022-08-20T11:44:11;8.30;;;5.82;;
11829;SDS011;5972;42.134;24.718;2022-08-20T11:46:38;10.30;;;5.78;;
11829;SDS011;5972;42.134;24.718;2022-08-20T11:49:06;8.75;;;5.20;;
11829;SDS011;5972;42.134;24.718;2022-08-20T11:51:33;10.13;;;5.22;;
11829;SDS011;5972;42.134;24.718;2022-08-20T11:54:01;7.93;;;5.72;;
11829;SDS011;5972;42.134;24.718;2022-08-20T11:56:28;10.13;;;5.28;;
11829;SDS011;5972;42.134;24.718;2022-08-20T11:58:55;7.85;;;5.50;;
11829;SDS011;5972;42.134;24.718;2022-08-20T12:01:22;7.53;;;5.55;;
11829;SDS011;5972;42.134;24.718;2022-08-20T12:03:49;9.13;;;5.57;;
11829;SDS011;5972;42.134;24.718;2022-08-20T12:06:17;9.30;;;5.65;;
11829;SDS011;5972;42.134;24.718;2022-08-20T12:08:44;9.15;;;5.50;;
11829;SDS011;5972;42.134;24.718;2022-08-20T12:11:11;9.98;;;5.22;;
11829;SDS011;5972;42.134;24.718;2022-08-20T12:13:38;7.78;;;5.57;;
11829;SDS011;5972;42.134;24.718;2022-08-20T12:16:05;11.32;;;5.55;;
11829;SDS011;5972;42.134;24.718;2022-08-20T12:18:32;7.53;;;4.80;;
11829;SDS011;5972;42.134;24.718;2022-08-20T12:20:59;6.32;;;5.05;;
11829;SDS011;5972;42.134;24.718;2022-08-20T12:23:27;7.05;;;5.38;;
11829;SDS011;5972;42.134;24.718;2022-08-20T12:25:54;9.07;;;5.22;;
11829;SDS011;5972;42.134;24.718;2022-08-20T12:28:21;5.65;;;5.07;;
11829;SDS011;5972;42.134;24.718;2022-08-20T12:30:51;5.80;;;5.07;;
11829;SDS011;5972;42.134;24.718;2022-08-20T12:33:18;8.82;;;5.47;;
11829;SDS011;5972;42.134;24.718;2022-08-20T12:35:45;6.47;;;5.35;;
11829;SDS011;5972;42.134;24.718;2022-08-20T12:38:11;9.55;;;5.32;;
11829;SDS011;5972;42.134;24.718;2022-08-20T12:40:40;7.65;;;5.25;;
11829;SDS011;5972;42.134;24.718;2022-08-20T12:43:07;9.43;;;5.18;;
11829;SDS011;5972;42.134;24.718;2022-08-20T12:45:34;6.90;;;5.55;;
11829;SDS011;5972;42.134;24.718;2022-08-20T12:48:03;7.10;;;5.18;;
11829;SDS011;5972;42.134;24.718;2022-08-20T12:50:32;8.30;;;5.32;;
11829;SDS011;5972;42.134;24.718;2022-08-20T12:53:00;5.93;;;5.07;;
11829;SDS011;5972;42.134;24.718;2022-08-20T12:55:27;10.32;;;5.00;;
11829;SDS011;5972;42.134;24.718;2022-08-20T12:57:56;7.07;;;5.28;;
11829;SDS011;5972;42.134;24.718;2022-08-20T13:00:26;5.00;;;4.60;;
11829;SDS011;5972;42.134;24.718;2022-08-20T13:02:55;7.55;;;5.20;;
11829;SDS011;5972;42.134;24.718;2022-08-20T13:05:23;6.38;;;5.07;;
11829;SDS011;5972;42.134;24.718;2022-08-20T13:07:51;6.53;;;5.03;;
11829;SDS011;5972;42.134;24.718;2022-08-20T13:10:19;5.30;;;4.72;;
11829;SDS011;5972;42.134;24.718;2022-08-20T13:12:47;6.22;;;5.00;;
11829;SDS011;5972;42.134;24.718;2022-08-20T13:15:16;8.07;;;4.70;;
11829;SDS011;5972;42.134;24.718;2022-08-20T13:17:43;10.73;;;4.93;;
11829;SDS011;5972;42.134;24.718;2022-08-20T13:20:11;6.43;;;4.78;;
11829;SDS011;5972;42.134;24.718;2022-08-20T13:22:40;6.75;;;4.88;;
11829;SDS011;5972;42.134;24.718;2022-08-20T13:25:07;5.03;;;4.57;;
11829;SDS011;5972;42.134;24.718;2022-08-20T13:27:36;10.07;;;5.03;;
11829;SDS011;5972;42.134;24.718;2022-08-20T13:30:03;7.57;;;4.60;;
11829;SDS011;5972;42.134;24.718;2022-08-20T13:32:33;7.28;;;5.13;;
11829;SDS011;5972;42.134;24.718;2022-08-20T13:35:00;5.30;;;4.80;;
11829;SDS011;5972;42.134;24.718;2022-08-20T13:37:27;7.03;;;5.05;;
11829;SDS011;5972;42.134;24.718;2022-08-20T13:39:56;11.48;;;5.38;;
11829;SDS011;5972;42.134;24.718;2022-08-20T13:42:24;9.98;;;5.15;;
11829;SDS011;5972;42.134;24.718;2022-08-20T13:44:52;6.97;;;4.70;;
11829;SDS011;5972;42.134;24.718;2022-08-20T13:47:21;6.85;;;4.75;;
11829;SDS011;5972;42.134;24.718;2022-08-20T13:49:54;7.60;;;4.60;;
11829;SDS011;5972;42.134;24.718;2022-08-20T13:52:23;6.38;;;4.70;;
11829;SDS011;5972;42.134;24.718;2022-08-20T13:54:51;14.82;;;5.13;;
11829;SDS011;5972;42.134;24.718;2022-08-20T13:57:18;10.65;;;4.70;;
11829;SDS011;5972;42.134;24.718;2022-08-20T13:59:47;9.55;;;4.93;;
11829;SDS011;5972;42.134;24.718;2022-08-20T14:02:16;6.57;;;4.85;;
11829;SDS011;5972;42.134;24.718;2022-08-20T14:04:44;6.97;;;4.68;;
11829;SDS011;5972;42.134;24.718;2022-08-20T14:07:14;6.70;;;4.70;;
11829;SDS011;5972;42.134;24.718;2022-08-20T14:09:43;5.20;;;4.80;;
11829;SDS011;5972;42.134;24.718;2022-08-20T14:12:12;7.25;;;4.60;;
11829;SDS011;5972;42.134;24.718;2022-08-20T14:14:39;6.68;;;4.35;;
11829;SDS011;5972;42.134;24.718;2022-08-20T14:17:12;6.35;;;4.55;;
11829;SDS011;5972;42.134;24.718;2022-08-20T14:19:39;8.30;;;4.80;;
11829;SDS011;5972;42.134;24.718;2022-08-20T14:22:06;7.10;;;4.70;;
11829;SDS011;5972;42.134;24.718;2022-08-20T14:24:34;5.18;;;4.40;;
11829;SDS011;5972;42.134;24.718;2022-08-20T14:27:02;5.38;;;4.88;;
11829;SDS011;5972;42.134;24.718;2022-08-20T14:29:32;7.90;;;4.78;;
11829;SDS011;5972;42.134;24.718;2022-08-20T14:32:00;5.03;;;4.50;;
11829;SDS011;5972;42.134;24.718;2022-08-20T14:34:27;6.43;;;4.60;;
11829;SDS011;5972;42.134;24.718;2022-08-20T14:36:54;5.25;;;4.50;;
11829;SDS011;5972;42.134;24.718;2022-08-20T14:39:26;5.00;;;4.47;;
11829;SDS011;5972;42.134;24.718;2022-08-20T14:41:54;6.28;;;4.60;;
11829;SDS011;5972;42.134;24.718;2022-08-20T14:44:21;5.28;;;4.40;;
11829;SDS011;5972;42.134;24.718;2022-08-20T14:46:48;7.15;;;4.47;;